Lake View, New York
Current Conditions -  °F | °C
As of 9:54 AM on Thursday 23 Oct 2014 (Local Time) from KBUF Reporting Station
Few Clouds Few Clouds  
Wind Chill: 45°   Ceiling: Unl
Heat Index: 49°   Visibility: 10mi
Dew Point: 41°   Wind: 8mph
Humidity: 74%   Direction: 350°N
Pressure: 30.13"   Gusts: NA
Location:  42.71°N, 78.94°W
Report Text: KBUF 231354Z 35007KT 10SM FEW050 FEW250 09/05 A3013 RMK AO2 SLP206 T00940050
Loading
Personal Weather Stations






























Interactive Weather Map
Tropical Storm Tracking
New forecast layout! Learn more

10-Day Weather Forecast

Advertisements
Track Severe Weather on mobile